sensor_id;sensor_type;location;lat;lon;timestamp;P1;durP1;ratioP1;P2;durP2;ratioP2
20997;SDS011;10657;51.276;6.390;2023-06-14T00:01:55;12.43;;;7.30;;
20997;SDS011;10657;51.276;6.390;2023-06-14T00:04:22;16.60;;;7.45;;
20997;SDS011;10657;51.276;6.390;2023-06-14T00:06:51;13.13;;;7.50;;
20997;SDS011;10657;51.276;6.390;2023-06-14T00:09:18;10.70;;;7.05;;
20997;SDS011;10657;51.276;6.390;2023-06-14T00:11:45;11.00;;;7.65;;
20997;SDS011;10657;51.276;6.390;2023-06-14T00:14:12;12.15;;;7.40;;
20997;SDS011;10657;51.276;6.390;2023-06-14T00:16:39;14.00;;;7.43;;
20997;SDS011;10657;51.276;6.390;2023-06-14T00:19:08;13.30;;;7.15;;
20997;SDS011;10657;51.276;6.390;2023-06-14T00:21:36;10.50;;;7.45;;
20997;SDS011;10657;51.276;6.390;2023-06-14T00:24:04;12.70;;;7.93;;
20997;SDS011;10657;51.276;6.390;2023-06-14T00:26:31;16.67;;;7.75;;
20997;SDS011;10657;51.276;6.390;2023-06-14T00:28:58;12.13;;;7.38;;
20997;SDS011;10657;51.276;6.390;2023-06-14T00:31:24;16.02;;;7.93;;
20997;SDS011;10657;51.276;6.390;2023-06-14T00:33:51;13.02;;;7.63;;
20997;SDS011;10657;51.276;6.390;2023-06-14T00:36:18;11.60;;;7.55;;
20997;SDS011;10657;51.276;6.390;2023-06-14T00:38:44;11.52;;;6.97;;
20997;SDS011;10657;51.276;6.390;2023-06-14T00:41:11;12.55;;;7.78;;
20997;SDS011;10657;51.276;6.390;2023-06-14T00:43:38;13.60;;;7.85;;
20997;SDS011;10657;51.276;6.390;2023-06-14T00:46:04;12.25;;;7.80;;
20997;SDS011;10657;51.276;6.390;2023-06-14T00:48:31;13.88;;;8.13;;
20997;SDS011;10657;51.276;6.390;2023-06-14T00:50:59;13.88;;;8.20;;
20997;SDS011;10657;51.276;6.390;2023-06-14T00:53:30;13.13;;;8.10;;
20997;SDS011;10657;51.276;6.390;2023-06-14T00:56:00;12.27;;;7.85;;
20997;SDS011;10657;51.276;6.390;2023-06-14T00:58:26;13.43;;;7.53;;
20997;SDS011;10657;51.276;6.390;2023-06-14T01:00:54;12.95;;;8.07;;
20997;SDS011;10657;51.276;6.390;2023-06-14T01:03:20;12.60;;;7.47;;
20997;SDS011;10657;51.276;6.390;2023-06-14T01:05:50;11.50;;;7.70;;
20997;SDS011;10657;51.276;6.390;2023-06-14T01:14:27;11.65;;;7.97;;
20997;SDS011;10657;51.276;6.390;2023-06-14T01:16:56;14.75;;;7.30;;
20997;SDS011;10657;51.276;6.390;2023-06-14T01:19:26;12.02;;;7.78;;
20997;SDS011;10657;51.276;6.390;2023-06-14T01:21:55;16.23;;;8.13;;
20997;SDS011;10657;51.276;6.390;2023-06-14T01:24:22;11.50;;;7.50;;
20997;SDS011;10657;51.276;6.390;2023-06-14T01:26:53;15.85;;;7.38;;
20997;SDS011;10657;51.276;6.390;2023-06-14T01:29:25;13.98;;;7.97;;
20997;SDS011;10657;51.276;6.390;2023-06-14T01:31:53;11.13;;;7.65;;
20997;SDS011;10657;51.276;6.390;2023-06-14T01:34:20;12.73;;;7.60;;
20997;SDS011;10657;51.276;6.390;2023-06-14T01:36:48;14.90;;;7.60;;
20997;SDS011;10657;51.276;6.390;2023-06-14T01:39:16;13.57;;;8.00;;
20997;SDS011;10657;51.276;6.390;2023-06-14T01:41:44;14.90;;;8.38;;
20997;SDS011;10657;51.276;6.390;2023-06-14T01:44:13;11.85;;;7.78;;
20997;SDS011;10657;51.276;6.390;2023-06-14T01:46:41;11.35;;;7.07;;
20997;SDS011;10657;51.276;6.390;2023-06-14T01:49:10;11.63;;;7.18;;
20997;SDS011;10657;51.276;6.390;2023-06-14T01:51:37;14.32;;;7.68;;
20997;SDS011;10657;51.276;6.390;2023-06-14T01:54:03;10.18;;;7.68;;
20997;SDS011;10657;51.276;6.390;2023-06-14T01:56:30;10.82;;;7.50;;
20997;SDS011;10657;51.276;6.390;2023-06-14T01:58:58;13.38;;;8.23;;
20997;SDS011;10657;51.276;6.390;2023-06-14T02:01:25;13.43;;;7.03;;
20997;SDS011;10657;51.276;6.390;2023-06-14T02:03:53;14.02;;;7.65;;
20997;SDS011;10657;51.276;6.390;2023-06-14T02:06:19;14.13;;;8.05;;
20997;SDS011;10657;51.276;6.390;2023-06-14T02:08:46;12.80;;;7.78;;
20997;SDS011;10657;51.276;6.390;2023-06-14T02:11:14;22.15;;;8.50;;
20997;SDS011;10657;51.276;6.390;2023-06-14T02:13:41;13.07;;;7.93;;
20997;SDS011;10657;51.276;6.390;2023-06-14T02:16:08;12.52;;;7.60;;
20997;SDS011;10657;51.276;6.390;2023-06-14T02:18:35;11.70;;;7.85;;
20997;SDS011;10657;51.276;6.390;2023-06-14T02:21:02;11.02;;;7.97;;
20997;SDS011;10657;51.276;6.390;2023-06-14T02:23:29;13.50;;;7.90;;
20997;SDS011;10657;51.276;6.390;2023-06-14T02:25:58;14.98;;;8.70;;
20997;SDS011;10657;51.276;6.390;2023-06-14T02:28:25;13.30;;;7.57;;
20997;SDS011;10657;51.276;6.390;2023-06-14T02:30:52;13.75;;;8.55;;
20997;SDS011;10657;51.276;6.390;2023-06-14T02:33:18;13.30;;;7.97;;
20997;SDS011;10657;51.276;6.390;2023-06-14T02:35:46;12.82;;;8.10;;
20997;SDS011;10657;51.276;6.390;2023-06-14T02:38:13;12.77;;;8.27;;
20997;SDS011;10657;51.276;6.390;2023-06-14T02:40:40;13.68;;;8.10;;
20997;SDS011;10657;51.276;6.390;2023-06-14T02:43:08;13.02;;;8.00;;
20997;SDS011;10657;51.276;6.390;2023-06-14T02:45:35;14.00;;;8.43;;
20997;SDS011;10657;51.276;6.390;2023-06-14T02:48:02;13.15;;;8.73;;
20997;SDS011;10657;51.276;6.390;2023-06-14T02:50:29;17.80;;;8.90;;
20997;SDS011;10657;51.276;6.390;2023-06-14T02:52:56;16.63;;;8.32;;
20997;SDS011;10657;51.276;6.390;2023-06-14T02:55:23;12.20;;;8.13;;
20997;SDS011;10657;51.276;6.390;2023-06-14T02:57:49;16.17;;;8.13;;
20997;SDS011;10657;51.276;6.390;2023-06-14T03:00:17;11.13;;;7.68;;
20997;SDS011;10657;51.276;6.390;2023-06-14T03:02:44;11.77;;;7.88;;
20997;SDS011;10657;51.276;6.390;2023-06-14T03:05:12;13.80;;;7.80;;
20997;SDS011;10657;51.276;6.390;2023-06-14T03:07:39;11.57;;;7.43;;
20997;SDS011;10657;51.276;6.390;2023-06-14T03:10:08;12.27;;;8.07;;
20997;SDS011;10657;51.276;6.390;2023-06-14T03:12:35;12.25;;;7.95;;
20997;SDS011;10657;51.276;6.390;2023-06-14T03:15:02;13.82;;;7.68;;
20997;SDS011;10657;51.276;6.390;2023-06-14T03:17:30;15.57;;;7.60;;
20997;SDS011;10657;51.276;6.390;2023-06-14T03:19:59;11.93;;;7.57;;
20997;SDS011;10657;51.276;6.390;2023-06-14T03:22:26;15.15;;;7.93;;
20997;SDS011;10657;51.276;6.390;2023-06-14T03:24:54;13.68;;;8.25;;
20997;SDS011;10657;51.276;6.390;2023-06-14T03:27:21;14.60;;;8.40;;
20997;SDS011;10657;51.276;6.390;2023-06-14T03:29:48;11.77;;;7.85;;
20997;SDS011;10657;51.276;6.390;2023-06-14T03:32:14;14.70;;;8.30;;
20997;SDS011;10657;51.276;6.390;2023-06-14T03:34:41;14.00;;;8.05;;
20997;SDS011;10657;51.276;6.390;2023-06-14T03:37:08;13.07;;;7.78;;
20997;SDS011;10657;51.276;6.390;2023-06-14T03:39:35;17.20;;;8.68;;
20997;SDS011;10657;51.276;6.390;2023-06-14T03:42:03;13.77;;;7.82;;
20997;SDS011;10657;51.276;6.390;2023-06-14T03:44:30;14.20;;;8.60;;
20997;SDS011;10657;51.276;6.390;2023-06-14T03:46:56;17.33;;;8.13;;
20997;SDS011;10657;51.276;6.390;2023-06-14T03:49:23;20.17;;;8.90;;
20997;SDS011;10657;51.276;6.390;2023-06-14T03:51:50;17.65;;;8.27;;
20997;SDS011;10657;51.276;6.390;2023-06-14T03:54:18;15.27;;;8.85;;
20997;SDS011;10657;51.276;6.390;2023-06-14T03:57:04;17.00;;;8.38;;
20997;SDS011;10657;51.276;6.390;2023-06-14T03:59:32;18.15;;;10.32;;
20997;SDS011;10657;51.276;6.390;2023-06-14T04:01:58;14.00;;;8.23;;
20997;SDS011;10657;51.276;6.390;2023-06-14T04:04:25;15.35;;;8.45;;
20997;SDS011;10657;51.276;6.390;2023-06-14T04:06:55;14.20;;;7.97;;
20997;SDS011;10657;51.276;6.390;2023-06-14T04:09:26;14.20;;;8.75;;
20997;SDS011;10657;51.276;6.390;2023-06-14T04:11:53;15.25;;;9.13;;
20997;SDS011;10657;51.276;6.390;2023-06-14T04:14:20;14.35;;;8.05;;
20997;SDS011;10657;51.276;6.390;2023-06-14T04:16:47;12.77;;;7.90;;
20997;SDS011;10657;51.276;6.390;2023-06-14T04:19:15;15.27;;;8.95;;
20997;SDS011;10657;51.276;6.390;2023-06-14T04:21:42;16.42;;;8.27;;
20997;SDS011;10657;51.276;6.390;2023-06-14T04:24:09;13.25;;;7.90;;
20997;SDS011;10657;51.276;6.390;2023-06-14T04:26:41;17.33;;;7.80;;
20997;SDS011;10657;51.276;6.390;2023-06-14T04:29:11;17.30;;;8.55;;
20997;SDS011;10657;51.276;6.390;2023-06-14T04:31:43;14.10;;;8.13;;
20997;SDS011;10657;51.276;6.390;2023-06-14T04:34:11;14.35;;;8.15;;
20997;SDS011;10657;51.276;6.390;2023-06-14T04:36:42;13.38;;;8.90;;
20997;SDS011;10657;51.276;6.390;2023-06-14T04:39:15;15.13;;;8.65;;
20997;SDS011;10657;51.276;6.390;2023-06-14T04:41:45;12.90;;;8.73;;
20997;SDS011;10657;51.276;6.390;2023-06-14T04:44:13;18.23;;;8.05;;
20997;SDS011;10657;51.276;6.390;2023-06-14T04:46:39;14.05;;;7.85;;
20997;SDS011;10657;51.276;6.390;2023-06-14T04:49:13;14.32;;;8.10;;
20997;SDS011;10657;51.276;6.390;2023-06-14T04:51:44;16.88;;;7.90;;
20997;SDS011;10657;51.276;6.390;2023-06-14T04:54:11;12.88;;;7.05;;
20997;SDS011;10657;51.276;6.390;2023-06-14T04:56:42;13.55;;;7.18;;
20997;SDS011;10657;51.276;6.390;2023-06-14T04:59:09;12.52;;;7.28;;
20997;SDS011;10657;51.276;6.390;2023-06-14T05:01:38;12.70;;;7.53;;
20997;SDS011;10657;51.276;6.390;2023-06-14T05:04:04;12.93;;;7.65;;
20997;SDS011;10657;51.276;6.390;2023-06-14T05:06:31;11.25;;;6.70;;
20997;SDS011;10657;51.276;6.390;2023-06-14T05:08:58;12.52;;;6.93;;
20997;SDS011;10657;51.276;6.390;2023-06-14T05:11:25;15.07;;;6.80;;
20997;SDS011;10657;51.276;6.390;2023-06-14T05:13:53;12.55;;;6.50;;
20997;SDS011;10657;51.276;6.390;2023-06-14T05:16:20;14.25;;;6.97;;
20997;SDS011;10657;51.276;6.390;2023-06-14T05:18:49;14.07;;;7.35;;
20997;SDS011;10657;51.276;6.390;2023-06-14T05:21:17;11.25;;;6.38;;
20997;SDS011;10657;51.276;6.390;2023-06-14T05:23:44;11.88;;;6.75;;
20997;SDS011;10657;51.276;6.390;2023-06-14T05:26:12;11.18;;;6.68;;
20997;SDS011;10657;51.276;6.390;2023-06-14T05:28:39;12.57;;;6.38;;
20997;SDS011;10657;51.276;6.390;2023-06-14T05:31:05;11.50;;;6.68;;
20997;SDS011;10657;51.276;6.390;2023-06-14T05:33:32;12.93;;;6.47;;
20997;SDS011;10657;51.276;6.390;2023-06-14T05:35:59;10.90;;;6.57;;
20997;SDS011;10657;51.276;6.390;2023-06-14T05:38:26;11.27;;;6.20;;
20997;SDS011;10657;51.276;6.390;2023-06-14T05:40:52;13.52;;;5.97;;
20997;SDS011;10657;51.276;6.390;2023-06-14T05:43:20;11.23;;;6.07;;
20997;SDS011;10657;51.276;6.390;2023-06-14T05:45:46;13.73;;;6.13;;
20997;SDS011;10657;51.276;6.390;2023-06-14T05:48:15;14.98;;;5.35;;
20997;SDS011;10657;51.276;6.390;2023-06-14T05:50:41;9.77;;;5.25;;
20997;SDS011;10657;51.276;6.390;2023-06-14T05:53:08;11.10;;;5.20;;
20997;SDS011;10657;51.276;6.390;2023-06-14T05:55:35;11.68;;;5.30;;
20997;SDS011;10657;51.276;6.390;2023-06-14T05:58:03;11.65;;;5.25;;
20997;SDS011;10657;51.276;6.390;2023-06-14T06:00:29;12.23;;;4.80;;
20997;SDS011;10657;51.276;6.390;2023-06-14T06:02:57;11.63;;;4.85;;
20997;SDS011;10657;51.276;6.390;2023-06-14T06:05:24;11.13;;;4.95;;
20997;SDS011;10657;51.276;6.390;2023-06-14T06:07:50;9.40;;;4.93;;
20997;SDS011;10657;51.276;6.390;2023-06-14T06:10:17;9.77;;;4.75;;
20997;SDS011;10657;51.276;6.390;2023-06-14T06:12:44;12.07;;;5.25;;
20997;SDS011;10657;51.276;6.390;2023-06-14T06:15:11;12.45;;;4.63;;
20997;SDS011;10657;51.276;6.390;2023-06-14T06:17:38;10.45;;;4.80;;
20997;SDS011;10657;51.276;6.390;2023-06-14T06:20:21;11.05;;;5.40;;
20997;SDS011;10657;51.276;6.390;2023-06-14T06:22:54;8.95;;;4.70;;
20997;SDS011;10657;51.276;6.390;2023-06-14T06:25:21;8.00;;;4.97;;
20997;SDS011;10657;51.276;6.390;2023-06-14T06:27:48;12.77;;;5.35;;
20997;SDS011;10657;51.276;6.390;2023-06-14T06:30:15;9.23;;;4.97;;
20997;SDS011;10657;51.276;6.390;2023-06-14T06:32:42;9.07;;;4.82;;
20997;SDS011;10657;51.276;6.390;2023-06-14T06:35:09;10.95;;;4.88;;
20997;SDS011;10657;51.276;6.390;2023-06-14T06:37:37;8.55;;;4.53;;
20997;SDS011;10657;51.276;6.390;2023-06-14T06:40:04;9.70;;;5.20;;
20997;SDS011;10657;51.276;6.390;2023-06-14T06:42:32;9.27;;;4.50;;
20997;SDS011;10657;51.276;6.390;2023-06-14T06:44:58;9.00;;;4.65;;
20997;SDS011;10657;51.276;6.390;2023-06-14T06:47:25;11.23;;;4.65;;
20997;SDS011;10657;51.276;6.390;2023-06-14T06:49:52;11.80;;;4.63;;
20997;SDS011;10657;51.276;6.390;2023-06-14T06:52:20;11.45;;;4.60;;
20997;SDS011;10657;51.276;6.390;2023-06-14T06:54:47;9.05;;;4.40;;
20997;SDS011;10657;51.276;6.390;2023-06-14T06:57:15;10.48;;;4.78;;
20997;SDS011;10657;51.276;6.390;2023-06-14T06:59:41;8.90;;;4.43;;
20997;SDS011;10657;51.276;6.390;2023-06-14T07:02:08;13.63;;;4.57;;
20997;SDS011;10657;51.276;6.390;2023-06-14T07:04:35;8.02;;;4.25;;
20997;SDS011;10657;51.276;6.390;2023-06-14T07:07:03;14.13;;;4.90;;
20997;SDS011;10657;51.276;6.390;2023-06-14T07:09:29;9.13;;;4.70;;
20997;SDS011;10657;51.276;6.390;2023-06-14T07:11:56;8.70;;;4.18;;
20997;SDS011;10657;51.276;6.390;2023-06-14T07:14:23;9.23;;;4.18;;
20997;SDS011;10657;51.276;6.390;2023-06-14T07:16:50;10.23;;;4.15;;
20997;SDS011;10657;51.276;6.390;2023-06-14T07:19:17;9.82;;;3.72;;
20997;SDS011;10657;51.276;6.390;2023-06-14T07:21:44;10.75;;;4.28;;
20997;SDS011;10657;51.276;6.390;2023-06-14T07:24:10;10.90;;;3.88;;
20997;SDS011;10657;51.276;6.390;2023-06-14T07:26:37;9.25;;;3.80;;
20997;SDS011;10657;51.276;6.390;2023-06-14T07:29:04;7.25;;;3.90;;
20997;SDS011;10657;51.276;6.390;2023-06-14T07:31:31;8.00;;;3.50;;
20997;SDS011;10657;51.276;6.390;2023-06-14T07:33:58;7.78;;;2.97;;
20997;SDS011;10657;51.276;6.390;2023-06-14T07:36:25;7.20;;;3.30;;
20997;SDS011;10657;51.276;6.390;2023-06-14T07:38:52;7.22;;;3.40;;
20997;SDS011;10657;51.276;6.390;2023-06-14T07:41:18;8.90;;;3.10;;
20997;SDS011;10657;51.276;6.390;2023-06-14T07:43:45;8.07;;;2.95;;
20997;SDS011;10657;51.276;6.390;2023-06-14T07:46:12;12.20;;;2.70;;
20997;SDS011;10657;51.276;6.390;2023-06-14T07:48:39;7.78;;;2.40;;
20997;SDS011;10657;51.276;6.390;2023-06-14T07:51:06;7.20;;;2.10;;
20997;SDS011;10657;51.276;6.390;2023-06-14T07:53:33;4.70;;;2.20;;
20997;SDS011;10657;51.276;6.390;2023-06-14T07:56:00;5.07;;;2.25;;
20997;SDS011;10657;51.276;6.390;2023-06-14T07:58:26;6.45;;;2.05;;
20997;SDS011;10657;51.276;6.390;2023-06-14T08:00:53;6.82;;;2.10;;
20997;SDS011;10657;51.276;6.390;2023-06-14T08:03:20;5.07;;;1.92;;
20997;SDS011;10657;51.276;6.390;2023-06-14T08:05:47;7.35;;;2.22;;
20997;SDS011;10657;51.276;6.390;2023-06-14T08:08:13;5.95;;;2.05;;
20997;SDS011;10657;51.276;6.390;2023-06-14T08:10:40;5.15;;;2.05;;
20997;SDS011;10657;51.276;6.390;2023-06-14T08:13:07;7.60;;;2.25;;
20997;SDS011;10657;51.276;6.390;2023-06-14T08:15:36;5.00;;;1.60;;
20997;SDS011;10657;51.276;6.390;2023-06-14T08:18:02;9.60;;;2.28;;
20997;SDS011;10657;51.276;6.390;2023-06-14T08:20:30;5.32;;;2.10;;
20997;SDS011;10657;51.276;6.390;2023-06-14T08:22:58;8.80;;;2.20;;
20997;SDS011;10657;51.276;6.390;2023-06-14T08:25:24;5.80;;;2.42;;
20997;SDS011;10657;51.276;6.390;2023-06-14T08:27:52;7.05;;;1.92;;
20997;SDS011;10657;51.276;6.390;2023-06-14T08:30:18;6.40;;;2.30;;
20997;SDS011;10657;51.276;6.390;2023-06-14T08:32:45;4.85;;;2.10;;
20997;SDS011;10657;51.276;6.390;2023-06-14T08:35:18;5.32;;;2.10;;
20997;SDS011;10657;51.276;6.390;2023-06-14T08:37:46;7.63;;;1.90;;
20997;SDS011;10657;51.276;6.390;2023-06-14T08:40:17;4.50;;;2.00;;
20997;SDS011;10657;51.276;6.390;2023-06-14T08:42:54;5.57;;;2.05;;
20997;SDS011;10657;51.276;6.390;2023-06-14T08:45:22;5.28;;;2.17;;
20997;SDS011;10657;51.276;6.390;2023-06-14T08:47:53;6.50;;;1.90;;
20997;SDS011;10657;51.276;6.390;2023-06-14T08:50:25;5.45;;;1.80;;
20997;SDS011;10657;51.276;6.390;2023-06-14T08:52:59;7.47;;;2.10;;
20997;SDS011;10657;51.276;6.390;2023-06-14T08:55:29;6.93;;;1.85;;
20997;SDS011;10657;51.276;6.390;2023-06-14T08:58:01;4.80;;;1.70;;
20997;SDS011;10657;51.276;6.390;2023-06-14T09:00:30;4.60;;;1.90;;
20997;SDS011;10657;51.276;6.390;2023-06-14T09:02:59;6.85;;;1.95;;
20997;SDS011;10657;51.276;6.390;2023-06-14T09:05:26;6.30;;;2.00;;
20997;SDS011;10657;51.276;6.390;2023-06-14T09:07:53;8.38;;;2.35;;
20997;SDS011;10657;51.276;6.390;2023-06-14T09:10:21;7.18;;;2.08;;
20997;SDS011;10657;51.276;6.390;2023-06-14T09:12:49;8.13;;;2.25;;
20997;SDS011;10657;51.276;6.390;2023-06-14T09:15:18;5.93;;;2.08;;
20997;SDS011;10657;51.276;6.390;2023-06-14T09:17:44;6.50;;;2.30;;
20997;SDS011;10657;51.276;6.390;2023-06-14T09:20:11;6.50;;;2.38;;
20997;SDS011;10657;51.276;6.390;2023-06-14T09:22:46;6.15;;;2.53;;
20997;SDS011;10657;51.276;6.390;2023-06-14T09:25:12;6.97;;;2.25;;
20997;SDS011;10657;51.276;6.390;2023-06-14T09:27:58;6.65;;;2.33;;
20997;SDS011;10657;51.276;6.390;2023-06-14T09:30:25;6.00;;;2.08;;
20997;SDS011;10657;51.276;6.390;2023-06-14T09:32:52;5.55;;;2.38;;
20997;SDS011;10657;51.276;6.390;2023-06-14T09:35:20;7.10;;;2.30;;
20997;SDS011;10657;51.276;6.390;2023-06-14T09:37:46;5.75;;;2.10;;
20997;SDS011;10657;51.276;6.390;2023-06-14T09:40:13;9.30;;;2.55;;
20997;SDS011;10657;51.276;6.390;2023-06-14T09:42:47;7.80;;;2.22;;
20997;SDS011;10657;51.276;6.390;2023-06-14T09:45:14;5.53;;;2.33;;
20997;SDS011;10657;51.276;6.390;2023-06-14T09:47:45;6.80;;;2.38;;
20997;SDS011;10657;51.276;6.390;2023-06-14T09:50:31;7.07;;;2.50;;
20997;SDS011;10657;51.276;6.390;2023-06-14T09:53:01;5.20;;;2.58;;
20997;SDS011;10657;51.276;6.390;2023-06-14T09:55:34;6.53;;;2.20;;
20997;SDS011;10657;51.276;6.390;2023-06-14T09:58:06;8.85;;;2.25;;
20997;SDS011;10657;51.276;6.390;2023-06-14T10:00:34;8.85;;;2.50;;
20997;SDS011;10657;51.276;6.390;2023-06-14T10:03:05;7.47;;;2.75;;
20997;SDS011;10657;51.276;6.390;2023-06-14T10:05:37;9.55;;;2.58;;
20997;SDS011;10657;51.276;6.390;2023-06-14T10:08:08;7.47;;;2.85;;
20997;SDS011;10657;51.276;6.390;2023-06-14T10:10:39;9.77;;;3.30;;
20997;SDS011;10657;51.276;6.390;2023-06-14T10:13:06;9.00;;;2.95;;
20997;SDS011;10657;51.276;6.390;2023-06-14T10:18:40;8.52;;;2.80;;
20997;SDS011;10657;51.276;6.390;2023-06-14T10:23:55;8.52;;;3.03;;
20997;SDS011;10657;51.276;6.390;2023-06-14T10:26:26;10.45;;;2.92;;
20997;SDS011;10657;51.276;6.390;2023-06-14T10:29:00;7.03;;;2.88;;
20997;SDS011;10657;51.276;6.390;2023-06-14T10:31:41;6.78;;;2.75;;
20997;SDS011;10657;51.276;6.390;2023-06-14T10:34:09;8.50;;;2.85;;
20997;SDS011;10657;51.276;6.390;2023-06-14T10:36:36;7.00;;;2.78;;
20997;SDS011;10657;51.276;6.390;2023-06-14T10:39:05;8.57;;;2.40;;
20997;SDS011;10657;51.276;6.390;2023-06-14T10:41:52;7.03;;;2.35;;
20997;SDS011;10657;51.276;6.390;2023-06-14T10:49:56;5.20;;;2.05;;
20997;SDS011;10657;51.276;6.390;2023-06-14T10:52:32;4.22;;;2.00;;
20997;SDS011;10657;51.276;6.390;2023-06-14T10:55:12;5.68;;;2.17;;
20997;SDS011;10657;51.276;6.390;2023-06-14T10:57:48;8.00;;;2.30;;
20997;SDS011;10657;51.276;6.390;2023-06-14T11:00:23;6.40;;;2.38;;
20997;SDS011;10657;51.276;6.390;2023-06-14T11:05:53;5.57;;;1.85;;
20997;SDS011;10657;51.276;6.390;2023-06-14T11:11:18;6.53;;;2.13;;
20997;SDS011;10657;51.276;6.390;2023-06-14T11:13:49;8.60;;;1.98;;
20997;SDS011;10657;51.276;6.390;2023-06-14T11:16:18;6.88;;;1.92;;
20997;SDS011;10657;51.276;6.390;2023-06-14T11:18:45;7.53;;;2.35;;
20997;SDS011;10657;51.276;6.390;2023-06-14T11:21:16;5.05;;;2.05;;
20997;SDS011;10657;51.276;6.390;2023-06-14T11:23:53;10.15;;;1.90;;
20997;SDS011;10657;51.276;6.390;2023-06-14T11:26:28;8.20;;;2.45;;
20997;SDS011;10657;51.276;6.390;2023-06-14T11:28:56;7.22;;;2.00;;
20997;SDS011;10657;51.276;6.390;2023-06-14T11:31:25;4.32;;;2.00;;
20997;SDS011;10657;51.276;6.390;2023-06-14T11:33:54;5.20;;;2.00;;
20997;SDS011;10657;51.276;6.390;2023-06-14T11:36:23;6.60;;;2.00;;
20997;SDS011;10657;51.276;6.390;2023-06-14T11:39:01;6.47;;;1.75;;
20997;SDS011;10657;51.276;6.390;2023-06-14T11:41:42;10.55;;;2.22;;
20997;SDS011;10657;51.276;6.390;2023-06-14T11:44:10;5.85;;;2.08;;
20997;SDS011;10657;51.276;6.390;2023-06-14T11:46:37;7.20;;;1.98;;
20997;SDS011;10657;51.276;6.390;2023-06-14T11:49:04;5.95;;;1.65;;
20997;SDS011;10657;51.276;6.390;2023-06-14T11:51:33;5.72;;;1.80;;
20997;SDS011;10657;51.276;6.390;2023-06-14T11:54:01;4.03;;;1.70;;
20997;SDS011;10657;51.276;6.390;2023-06-14T11:56:29;6.68;;;1.92;;
20997;SDS011;10657;51.276;6.390;2023-06-14T11:58:58;5.13;;;1.90;;
20997;SDS011;10657;51.276;6.390;2023-06-14T12:01:25;6.85;;;2.00;;
20997;SDS011;10657;51.276;6.390;2023-06-14T12:03:53;5.47;;;2.03;;
20997;SDS011;10657;51.276;6.390;2023-06-14T12:06:26;4.45;;;1.70;;
20997;SDS011;10657;51.276;6.390;2023-06-14T12:08:55;5.80;;;1.77;;
20997;SDS011;10657;51.276;6.390;2023-06-14T12:11:22;7.22;;;1.80;;
20997;SDS011;10657;51.276;6.390;2023-06-14T12:13:49;4.45;;;2.10;;
20997;SDS011;10657;51.276;6.390;2023-06-14T12:16:16;6.55;;;1.63;;
20997;SDS011;10657;51.276;6.390;2023-06-14T12:18:43;5.07;;;1.85;;
20997;SDS011;10657;51.276;6.390;2023-06-14T12:21:11;4.80;;;1.80;;
20997;SDS011;10657;51.276;6.390;2023-06-14T12:23:47;3.70;;;1.70;;
20997;SDS011;10657;51.276;6.390;2023-06-14T12:26:16;5.30;;;1.70;;
20997;SDS011;10657;51.276;6.390;2023-06-14T12:28:44;4.95;;;1.73;;
20997;SDS011;10657;51.276;6.390;2023-06-14T12:31:12;4.82;;;2.13;;
20997;SDS011;10657;51.276;6.390;2023-06-14T12:33:40;4.22;;;1.88;;
20997;SDS011;10657;51.276;6.390;2023-06-14T12:36:08;4.68;;;1.90;;
20997;SDS011;10657;51.276;6.390;2023-06-14T12:38:36;7.47;;;2.00;;
20997;SDS011;10657;51.276;6.390;2023-06-14T12:41:03;7.95;;;2.20;;
20997;SDS011;10657;51.276;6.390;2023-06-14T12:43:30;4.47;;;1.80;;
20997;SDS011;10657;51.276;6.390;2023-06-14T12:45:57;6.75;;;2.63;;
20997;SDS011;10657;51.276;6.390;2023-06-14T12:48:24;7.90;;;2.00;;
20997;SDS011;10657;51.276;6.390;2023-06-14T12:50:53;6.50;;;1.92;;
20997;SDS011;10657;51.276;6.390;2023-06-14T12:53:19;6.70;;;2.08;;
20997;SDS011;10657;51.276;6.390;2023-06-14T12:55:49;9.15;;;2.05;;
20997;SDS011;10657;51.276;6.390;2023-06-14T12:58:16;6.65;;;2.47;;
20997;SDS011;10657;51.276;6.390;2023-06-14T13:00:46;4.13;;;1.80;;
20997;SDS011;10657;51.276;6.390;2023-06-14T13:03:13;4.20;;;1.92;;
20997;SDS011;10657;51.276;6.390;2023-06-14T13:05:40;5.10;;;1.98;;
20997;SDS011;10657;51.276;6.390;2023-06-14T13:08:09;5.10;;;1.98;;
20997;SDS011;10657;51.276;6.390;2023-06-14T13:10:35;6.20;;;2.35;;
20997;SDS011;10657;51.276;6.390;2023-06-14T13:13:02;6.70;;;1.88;;
20997;SDS011;10657;51.276;6.390;2023-06-14T13:15:29;4.75;;;1.88;;
20997;SDS011;10657;51.276;6.390;2023-06-14T13:17:56;4.82;;;1.85;;
20997;SDS011;10657;51.276;6.390;2023-06-14T13:20:23;5.25;;;1.90;;
20997;SDS011;10657;51.276;6.390;2023-06-14T13:22:50;4.90;;;1.80;;
20997;SDS011;10657;51.276;6.390;2023-06-14T13:25:17;7.22;;;1.90;;
20997;SDS011;10657;51.276;6.390;2023-06-14T13:27:43;9.40;;;2.35;;
20997;SDS011;10657;51.276;6.390;2023-06-14T13:30:11;8.32;;;2.10;;
20997;SDS011;10657;51.276;6.390;2023-06-14T13:32:38;10.57;;;2.20;;
20997;SDS011;10657;51.276;6.390;2023-06-14T13:35:05;4.85;;;1.70;;
20997;SDS011;10657;51.276;6.390;2023-06-14T13:37:32;3.72;;;1.70;;
20997;SDS011;10657;51.276;6.390;2023-06-14T13:39:59;5.07;;;1.73;;
20997;SDS011;10657;51.276;6.390;2023-06-14T13:42:25;6.35;;;1.98;;
20997;SDS011;10657;51.276;6.390;2023-06-14T13:44:52;4.55;;;1.80;;
20997;SDS011;10657;51.276;6.390;2023-06-14T13:47:20;3.60;;;1.63;;
20997;SDS011;10657;51.276;6.390;2023-06-14T13:49:47;5.72;;;1.77;;
20997;SDS011;10657;51.276;6.390;2023-06-14T13:52:14;7.78;;;2.67;;
20997;SDS011;10657;51.276;6.390;2023-06-14T13:54:41;7.43;;;1.95;;
20997;SDS011;10657;51.276;6.390;2023-06-14T13:57:09;5.40;;;1.70;;
20997;SDS011;10657;51.276;6.390;2023-06-14T13:59:39;6.40;;;1.98;;
20997;SDS011;10657;51.276;6.390;2023-06-14T14:02:06;5.30;;;1.90;;
20997;SDS011;10657;51.276;6.390;2023-06-14T14:04:34;4.35;;;1.75;;
20997;SDS011;10657;51.276;6.390;2023-06-14T14:07:04;7.30;;;1.95;;
20997;SDS011;10657;51.276;6.390;2023-06-14T14:09:32;4.47;;;1.52;;
20997;SDS011;10657;51.276;6.390;2023-06-14T14:12:01;4.10;;;1.80;;
20997;SDS011;10657;51.276;6.390;2023-06-14T14:14:30;4.93;;;2.10;;
20997;SDS011;10657;51.276;6.390;2023-06-14T14:16:58;7.28;;;2.08;;
20997;SDS011;10657;51.276;6.390;2023-06-14T14:19:25;7.68;;;1.88;;
20997;SDS011;10657;51.276;6.390;2023-06-14T14:21:52;7.50;;;2.10;;
20997;SDS011;10657;51.276;6.390;2023-06-14T14:24:19;6.40;;;2.20;;
20997;SDS011;10657;51.276;6.390;2023-06-14T14:26:46;5.22;;;2.00;;
20997;SDS011;10657;51.276;6.390;2023-06-14T14:29:14;5.30;;;2.55;;
20997;SDS011;10657;51.276;6.390;2023-06-14T14:31:42;7.60;;;2.00;;
20997;SDS011;10657;51.276;6.390;2023-06-14T14:34:09;6.28;;;2.00;;
20997;SDS011;10657;51.276;6.390;2023-06-14T14:36:36;6.88;;;2.08;;
20997;SDS011;10657;51.276;6.390;2023-06-14T14:39:04;5.55;;;2.00;;
20997;SDS011;10657;51.276;6.390;2023-06-14T14:41:30;5.15;;;2.08;;
20997;SDS011;10657;51.276;6.390;2023-06-14T14:43:57;6.95;;;2.10;;
20997;SDS011;10657;51.276;6.390;2023-06-14T14:46:27;5.97;;;2.00;;
20997;SDS011;10657;51.276;6.390;2023-06-14T14:48:54;4.30;;;1.92;;
20997;SDS011;10657;51.276;6.390;2023-06-14T14:51:21;7.25;;;2.40;;
20997;SDS011;10657;51.276;6.390;2023-06-14T14:53:47;4.68;;;2.30;;
20997;SDS011;10657;51.276;6.390;2023-06-14T14:56:14;5.60;;;2.45;;
20997;SDS011;10657;51.276;6.390;2023-06-14T14:58:41;5.47;;;2.50;;
20997;SDS011;10657;51.276;6.390;2023-06-14T15:01:08;5.10;;;2.20;;
20997;SDS011;10657;51.276;6.390;2023-06-14T15:03:35;7.43;;;2.50;;
20997;SDS011;10657;51.276;6.390;2023-06-14T15:06:22;8.65;;;2.33;;
20997;SDS011;10657;51.276;6.390;2023-06-14T15:08:48;8.32;;;2.13;;
20997;SDS011;10657;51.276;6.390;2023-06-14T15:11:15;7.05;;;2.50;;